Time;durP1;ratioP1;P1;durP2;ratioP2;P2;SDS_P1;SDS_P2;PMS_P1;PMS_P2;Temp;Humidity;BMP_temperature;BMP_pressure;BME280_temperature;BME280_humidity;BME280_pressure;Samples;Min_cycle;Max_cycle;Signal;HPM_P1;HPM_P2
2023/10/01 00:01:32;;;;;;;16.27;12.00;;;;;;;12.39;79.64;99151.53;5054006;28;20393;-70
2023/10/01 00:03:57;;;;;;;19.30;12.02;;;;;;;12.49;79.35;99173.41;5053001;28;20062;-70
2023/10/01 00:06:24;;;;;;;16.10;12.63;;;;;;;12.44;79.56;99180.56;5052631;28;20043;-70
2023/10/01 00:08:50;;;;;;;19.67;13.13;;;;;;;12.26;79.67;99157.16;5052974;28;20074;-70
2023/10/01 00:11:15;;;;;;;19.25;13.23;;;;;;;12.32;79.35;99172.44;5052819;28;20037;-69
2023/10/01 00:13:41;;;;;;;15.75;11.18;;;;;;;12.32;80.01;99177.03;5070690;28;20027;-70
2023/10/01 00:16:06;;;;;;;14.45;10.70;;;;;;;12.22;79.56;99161.38;5070257;28;20064;-70
2023/10/01 00:18:32;;;;;;;16.42;11.82;;;;;;;12.25;79.24;99185.22;5071657;28;20025;-70
2023/10/01 00:20:57;;;;;;;17.20;12.50;;;;;;;12.23;78.91;99186.50;5053257;28;20057;-70
2023/10/01 00:23:22;;;;;;;14.50;11.32;;;;;;;12.16;79.13;99183.09;5073568;28;20030;-70
2023/10/01 00:25:48;;;;;;;16.10;11.23;;;;;;;12.15;79.37;99193.06;5055949;28;20090;-70
2023/10/01 00:28:14;;;;;;;13.88;10.10;;;;;;;12.15;78.67;99187.66;5036619;28;20528;-70
2023/10/01 00:30:39;;;;;;;13.18;10.45;;;;;;;12.17;79.05;99184.72;5028861;28;20032;-69
2023/10/01 00:33:06;;;;;;;18.73;10.93;;;;;;;12.16;79.36;99183.09;5052022;28;20039;-69
2023/10/01 00:35:31;;;;;;;15.10;11.30;;;;;;;12.11;78.84;99175.66;5066228;28;20037;-69
2023/10/01 00:37:57;;;;;;;16.17;10.82;;;;;;;12.11;79.21;99170.25;5074082;28;20473;-69
2023/10/01 00:40:22;;;;;;;16.90;11.32;;;;;;;12.07;78.70;99155.56;5056162;28;20481;-72
2023/10/01 00:42:48;;;;;;;14.82;11.02;;;;;;;12.06;79.08;99155.81;5048319;28;20025;-73
2023/10/01 00:45:16;;;;;;;13.77;9.90;;;;;;;12.04;79.00;99153.31;5027757;28;20039;-72
2023/10/01 00:47:42;;;;;;;14.63;10.65;;;;;;;12.13;78.65;99167.34;5036063;28;20039;-72
2023/10/01 00:50:21;;;;;;;14.23;11.05;;;;;;;11.88;78.34;99127.00;5044847;28;20060;-72
2023/10/01 00:52:49;;;;;;;14.23;10.95;;;;;;;12.04;78.37;99141.72;5052734;28;20116;-72
2023/10/01 00:55:16;;;;;;;16.40;10.98;;;;;;;11.98;77.92;99143.47;5019413;28;20078;-72
2023/10/01 00:57:42;;;;;;;13.82;10.50;;;;;;;11.88;78.35;99135.09;5052733;28;20083;-71
2023/10/01 01:00:09;;;;;;;19.40;12.52;;;;;;;11.73;78.59;99134.69;5033420;28;20414;-71
2023/10/01 01:02:37;;;;;;;22.00;14.93;;;;;;;11.64;79.39;99136.03;5035964;28;20508;-72
2023/10/01 01:05:19;;;;;;;19.77;14.00;;;;;;;11.70;79.97;99162.13;5032258;28;20021;-72
2023/10/01 01:07:48;;;;;;;19.65;14.48;;;;;;;11.43;80.89;99134.66;5046425;28;20043;-72
2023/10/01 01:10:18;;;;;;;22.23;14.82;;;;;;;11.48;81.29;99144.75;5084660;28;20025;-70
2023/10/01 01:12:54;;;;;;;24.42;14.48;;;;;;;11.51;81.51;99146.97;5052273;28;20051;-72
2023/10/01 01:15:21;;;;;;;;;;;;;;;11.16;81.97;99159.44;5035529;28;20067;-71
2023/10/01 01:17:48;;;;;;;20.50;13.52;;;;;;;11.48;81.68;99158.25;5036120;28;20449;-72
2023/10/01 01:20:16;;;;;;;24.95;15.32;;;;;;;11.40;81.07;99147.75;5040107;28;20045;-72
2023/10/01 01:22:51;;;;;;;23.52;15.63;;;;;;;11.48;81.35;99166.34;5047547;28;20662;-70
2023/10/01 01:25:20;;;;;;;17.23;11.88;;;;;;;11.40;81.21;99151.28;5056060;28;20044;-70
2023/10/01 01:27:50;;;;;;;16.25;11.55;;;;;;;11.52;80.73;99156.72;5055965;28;20025;-72
2023/10/01 01:30:18;;;;;;;13.07;10.60;;;;;;;11.51;80.18;99158.59;5039492;28;20039;-71
2023/10/01 01:32:47;;;;;;;16.55;11.77;;;;;;;11.58;80.29;99172.00;5039779;28;20043;-69
2023/10/01 01:35:14;;;;;;;13.07;10.68;;;;;;;11.54;80.06;99155.47;5055454;28;20036;-69
2023/10/01 01:37:48;;;;;;;17.05;11.20;;;;;;;11.58;80.04;99169.31;5039114;28;20028;-69
2023/10/01 01:40:24;;;;;;;14.63;10.95;;;;;;;11.53;80.01;99167.28;5072506;28;20036;-69
2023/10/01 01:42:50;;;;;;;;;;;;;;;11.26;80.84;99170.53;5040783;28;20535;-69
2023/10/01 01:45:18;;;;;;;14.88;11.23;;;;;;;11.46;80.20;99163.03;5048164;28;20002;-69
2023/10/01 01:47:44;;;;;;;17.55;11.75;;;;;;;11.55;79.87;99165.19;5073173;28;20044;-69
2023/10/01 01:50:19;;;;;;;15.05;10.90;;;;;;;11.38;79.87;99141.75;5055978;28;20028;-71
2023/10/01 01:52:49;;;;;;;14.82;10.98;;;;;;;11.49;79.27;99149.91;5041012;28;20115;-70
2023/10/01 01:55:29;;;;;;;16.50;10.27;;;;;;;11.47;78.78;99152.03;5055784;28;20036;-71
2023/10/01 01:58:10;;;;;;;13.90;10.05;;;;;;;11.43;79.00;99144.59;5040788;28;20043;-71
2023/10/01 02:00:38;;;;;;;15.43;10.90;;;;;;;11.41;78.53;99146.72;5041308;28;20436;-71
2023/10/01 02:03:10;;;;;;;15.55;10.60;;;;;;;11.28;78.05;99136.06;5056661;28;20434;-71
2023/10/01 02:05:41;;;;;;;15.18;10.82;;;;;;;11.34;78.30;99140.56;5051846;28;20037;-71
2023/10/01 02:08:23;;;;;;;15.85;10.52;;;;;;;11.27;78.40;99146.03;5046142;28;20029;-69
2023/10/01 02:10:50;;;;;;;64.18;12.95;;;;;;;11.16;78.86;99137.84;5058743;28;20042;-69
2023/10/01 02:13:17;;;;;;;128.43;15.73;;;;;;;11.15;79.70;99138.94;5055449;28;20031;-70
2023/10/01 02:15:45;;;;;;;663.55;33.00;;;;;;;11.00;79.96;99118.56;5051312;28;20028;-69
2023/10/01 02:18:13;;;;;;;14.98;11.65;;;;;;;11.10;80.33;99140.44;5034869;28;20024;-69
2023/10/01 02:20:40;;;;;;;12.60;10.35;;;;;;;10.99;80.08;99121.50;5055327;28;20032;-70
2023/10/01 02:23:12;;;;;;;16.67;11.73;;;;;;;11.08;80.12;99142.50;5038277;28;20075;-69
2023/10/01 02:25:45;;;;;;;20.98;13.82;;;;;;;11.01;79.47;99128.31;5037650;28;20036;-69
2023/10/01 02:28:15;;;;;;;16.58;11.80;;;;;;;11.06;79.87;99144.59;5055485;28;20025;-71
2023/10/01 02:30:41;;;;;;;13.70;10.60;;;;;;;10.90;79.66;99120.09;5051488;28;20063;-73
2023/10/01 02:33:20;;;;;;;12.30;10.27;;;;;;;10.93;80.06;99136.66;5033417;28;20496;-73
2023/10/01 02:35:49;;;;;;;14.55;11.18;;;;;;;11.04;79.77;99144.00;5045160;28;20572;-72
2023/10/01 02:41:02;;;;;;;14.05;10.52;;;;;;;10.92;79.39;99137.72;5036644;28;20028;-70
2023/10/01 02:43:33;;;;;;;14.20;10.88;;;;;;;10.94;79.65;99135.63;5037582;28;20029;-70
2023/10/01 02:46:04;;;;;;;12.07;10.65;;;;;;;10.99;79.46;99132.28;5037835;28;20036;-70
2023/10/01 02:48:30;;;;;;;16.50;11.55;;;;;;;10.95;79.57;99123.78;5034672;28;20029;-72
2023/10/01 02:50:55;;;;;;;15.25;10.23;;;;;;;10.99;79.58;99132.28;5032365;28;20086;-70
2023/10/01 02:53:22;;;;;;;13.20;10.30;;;;;;;11.01;79.37;99131.00;5042136;28;20041;-69
2023/10/01 02:55:51;;;;;;;15.93;10.13;;;;;;;10.98;79.16;99120.66;5048436;28;20036;-71
2023/10/01 02:58:19;;;;;;;12.52;10.55;;;;;;;11.01;79.32;99127.47;5053777;28;20033;-70
2023/10/01 03:00:45;;;;;;;14.55;11.00;;;;;;;11.00;79.30;99126.66;5053757;28;20494;-70
2023/10/01 03:03:17;;;;;;;15.20;11.45;;;;;;;11.01;78.91;99124.78;5033995;28;20029;-73
2023/10/01 03:05:47;;;;;;;14.20;10.77;;;;;;;10.93;78.85;99107.03;5063185;28;20062;-73
2023/10/01 03:10:58;;;;;;;16.70;13.02;;;;;;;10.99;79.34;99111.50;5047183;28;20032;-70
2023/10/01 03:13:30;;;;;;;16.42;13.10;;;;;;;10.98;79.80;99126.06;5050266;28;20108;-71
2023/10/01 03:19:13;;;;;;;13.75;11.70;;;;;;;10.67;79.82;99096.53;4997644;28;20124;-71
2023/10/01 03:24:25;;;;;;;14.80;11.80;;;;;;;10.72;79.84;99118.22;5071642;28;20028;-71
2023/10/01 03:26:50;;;;;;;15.55;12.88;;;;;;;10.81;79.80;99127.66;5037052;28;20025;-72
2023/10/01 03:29:19;;;;;;;17.33;13.02;;;;;;;10.83;79.85;99132.81;5050407;28;20035;-70
2023/10/01 03:31:46;;;;;;;16.05;11.82;;;;;;;10.88;79.92;99130.28;5071973;28;20028;-70
2023/10/01 03:34:28;;;;;;;14.65;11.55;;;;;;;10.92;79.23;99126.13;5071691;28;20037;-71
2023/10/01 03:36:58;;;;;;;15.80;12.02;;;;;;;10.90;79.64;99129.03;5055449;28;20045;-69
2023/10/01 03:39:27;;;;;;;13.82;10.70;;;;;;;10.89;79.71;99116.63;5053991;28;20125;-70
2023/10/01 03:47:19;;;;;;;17.38;12.32;;;;;;;10.83;79.58;99112.09;5066489;28;20035;-73
2023/10/01 03:49:44;;;;;;;17.75;14.45;;;;;;;10.63;79.45;99084.56;5053512;28;20465;-71
2023/10/01 03:52:14;;;;;;;16.75;12.27;;;;;;;10.74;79.41;99108.06;5053764;28;20043;-69
2023/10/01 03:54:53;;;;;;;17.90;13.85;;;;;;;10.64;80.12;99113.13;5057984;28;20112;-70
2023/10/01 03:57:19;;;;;;;17.73;12.85;;;;;;;10.62;79.99;99115.22;5059287;28;20032;-70
2023/10/01 03:59:54;;;;;;;19.73;13.43;;;;;;;10.62;80.05;99120.59;5057617;28;20048;-70
2023/10/01 04:05:21;;;;;;;20.85;13.63;;;;;;;10.49;79.84;99123.44;5041856;28;20458;-72
2023/10/01 04:07:47;;;;;;;14.10;11.77;;;;;;;10.51;80.66;99129.41;5075168;28;20119;-71
2023/10/01 04:10:14;;;;;;;17.40;14.13;;;;;;;10.55;80.65;99130.63;5040761;28;20068;-70
2023/10/01 04:12:44;;;;;;;14.90;11.98;;;;;;;10.54;80.65;99133.53;5041604;28;20040;-70
2023/10/01 04:15:22;;;;;;;15.77;12.52;;;;;;;10.56;80.60;99132.28;5056761;28;20119;-73
2023/10/01 04:18:09;;;;;;;17.58;12.00;;;;;;;10.60;80.75;99121.88;5058400;28;20039;-72
2023/10/01 04:20:33;;;;;;;14.45;11.90;;;;;;;10.53;80.80;99113.84;5074957;28;20040;-71
2023/10/01 04:23:04;;;;;;;14.48;10.93;;;;;;;10.58;80.62;99113.19;5056843;28;20051;-73
2023/10/01 04:25:38;;;;;;;12.38;9.27;;;;;;;10.58;80.79;99124.78;5057594;28;20064;-71
2023/10/01 04:28:05;;;;;;;14.25;10.30;;;;;;;10.40;81.32;99101.34;5056911;28;20032;-72
2023/10/01 04:30:34;;;;;;;12.10;10.10;;;;;;;10.48;80.95;99127.16;5057177;28;20025;-74
2023/10/01 04:33:16;;;;;;;15.52;12.10;;;;;;;10.48;80.85;99121.78;5040400;28;20056;-72
2023/10/01 04:35:51;;;;;;;14.48;10.80;;;;;;;10.47;81.01;99133.59;5058867;28;20028;-70
2023/10/01 04:38:21;;;;;;;13.80;10.70;;;;;;;10.16;81.01;99095.97;5057782;28;20485;-74
2023/10/01 04:40:48;;;;;;;10.15;8.95;;;;;;;10.45;80.90;99114.16;5056724;28;20549;-73
2023/10/01 04:43:16;;;;;;;9.95;8.95;;;;;;;10.50;80.80;99117.03;5053384;28;20028;-73
2023/10/01 04:45:44;;;;;;;11.10;9.65;;;;;;;10.51;81.03;99120.50;5035912;28;20041;-73
2023/10/01 04:48:17;;;;;;;12.57;10.45;;;;;;;10.41;80.55;99102.16;5036917;28;20067;-75
2023/10/01 04:50:46;;;;;;;13.82;12.27;;;;;;;10.51;80.77;99129.41;5057562;28;20036;-74
2023/10/01 04:53:13;;;;;;;14.23;12.73;;;;;;;10.45;80.95;99135.69;5054203;28;20064;-73
2023/10/01 04:55:42;;;;;;;13.20;11.07;;;;;;;10.24;80.35;99120.75;5037712;28;20032;-74
2023/10/01 04:58:08;;;;;;;12.20;10.40;;;;;;;10.29;80.61;99141.63;5053473;28;20029;-73
2023/10/01 05:00:34;;;;;;;13.68;11.27;;;;;;;10.27;80.59;99143.69;5052969;28;20043;-72
2023/10/01 05:03:03;;;;;;;15.52;12.75;;;;;;;10.22;80.16;99146.25;5048558;28;20028;-72
2023/10/01 05:05:28;;;;;;;14.68;11.55;;;;;;;10.15;80.01;99150.84;5050351;28;20064;-70
2023/10/01 05:07:57;;;;;;;10.43;8.85;;;;;;;10.05;80.28;99153.16;5066325;28;20150;-70
2023/10/01 05:10:26;;;;;;;11.35;9.15;;;;;;;10.00;80.02;99140.34;5056280;28;20093;-71
2023/10/01 05:12:58;;;;;;;11.80;9.15;;;;;;;10.02;79.76;99156.28;5056236;28;20107;-73
2023/10/01 05:15:31;;;;;;;12.45;10.02;;;;;;;9.97;79.64;99142.66;5055114;28;20044;-74
2023/10/01 05:17:56;;;;;;;13.95;10.48;;;;;;;10.07;80.03;99159.16;5058277;28;20044;-71
2023/10/01 05:20:25;;;;;;;11.95;10.00;;;;;;;10.08;79.87;99155.44;5056251;28;20240;-73
2023/10/01 05:22:51;;;;;;;13.00;11.18;;;;;;;9.96;79.85;99132.94;5039325;28;20033;-72
2023/10/01 05:25:18;;;;;;;12.48;11.15;;;;;;;10.13;79.80;99153.75;5055333;28;20449;-74
2023/10/01 05:27:45;;;;;;;13.30;10.60;;;;;;;10.04;80.13;99140.72;5039137;28;20043;-74
2023/10/01 05:32:58;;;;;;;11.55;9.52;;;;;;;10.09;80.11;99162.44;5057342;28;20024;-74
2023/10/01 05:35:24;;;;;;;14.23;11.43;;;;;;;10.02;79.52;99149.03;5072987;28;20020;-74
2023/10/01 05:37:50;;;;;;;13.48;11.57;;;;;;;9.97;79.36;99145.34;5055396;28;20035;-74
2023/10/01 05:40:15;;;;;;;12.73;10.77;;;;;;;10.08;79.62;99172.38;5055402;28;20480;-74
2023/10/01 05:42:41;;;;;;;11.48;10.05;;;;;;;10.00;79.54;99158.38;5073018;28;20407;-74
2023/10/01 05:45:14;;;;;;;17.05;13.30;;;;;;;10.08;79.69;99166.19;5049554;28;20021;-72
2023/10/01 05:47:51;;;;;;;19.38;13.40;;;;;;;9.97;79.96;99169.56;5066831;28;20056;-74
2023/10/01 05:50:18;;;;;;;17.73;13.00;;;;;;;9.90;80.07;99163.38;5072954;28;20037;-74
2023/10/01 05:52:45;;;;;;;9.65;8.52;;;;;;;9.95;80.36;99185.09;5072865;28;20032;-74
2023/10/01 05:55:15;;;;;;;23.50;15.85;;;;;;;9.94;80.28;99176.19;5068478;28;20060;-74
2023/10/01 05:57:41;;;;;;;13.85;11.68;;;;;;;9.89;80.51;99172.50;5049507;28;20501;-73
2023/10/01 06:00:17;;;;;;;13.20;10.27;;;;;;;10.02;80.65;99183.19;5032787;28;20024;-73
2023/10/01 06:03:00;;;;;;;12.30;9.90;;;;;;;10.17;80.34;99197.22;5046956;28;20397;-72
2023/10/01 06:05:33;;;;;;;15.98;12.30;;;;;;;10.14;80.32;99187.72;5037746;28;20036;-73
2023/10/01 06:08:12;;;;;;;21.05;14.85;;;;;;;10.29;80.28;99195.47;5039186;28;20037;-73
2023/10/01 06:11:05;;;;;;;16.65;13.18;;;;;;;10.39;80.70;99201.19;5051234;28;20036;-73
2023/10/01 06:13:31;;;;;;;14.15;11.55;;;;;;;10.54;80.99;99204.41;5062322;28;20044;-73
2023/10/01 06:15:58;;;;;;;17.98;13.32;;;;;;;10.55;81.07;99197.16;5042053;28;20100;-74
2023/10/01 06:18:25;;;;;;;16.42;11.98;;;;;;;10.71;81.84;99205.47;5052860;28;20484;-73
2023/10/01 06:20:53;;;;;;;17.95;12.77;;;;;;;10.69;81.79;99199.50;5054606;28;20060;-73
2023/10/01 06:23:21;;;;;;;17.33;12.82;;;;;;;10.89;81.56;99210.94;5054411;28;20036;-74
2023/10/01 06:25:47;;;;;;;18.83;12.10;;;;;;;10.98;81.64;99204.22;5054421;28;20361;-74
2023/10/01 06:28:20;;;;;;;17.42;12.77;;;;;;;10.89;81.76;99181.28;5054754;28;20029;-73
2023/10/01 06:30:45;;;;;;;15.68;12.55;;;;;;;11.18;81.81;99213.97;5047927;28;20055;-73
2023/10/01 06:33:26;;;;;;;15.95;11.65;;;;;;;11.25;81.52;99212.84;5054223;28;20481;-73
2023/10/01 06:38:39;;;;;;;23.00;13.07;;;;;;;11.30;81.60;99204.06;5050936;28;20056;-73
2023/10/01 06:41:06;;;;;;;14.35;11.10;;;;;;;11.49;81.80;99214.66;5050655;28;20556;-73
2023/10/01 06:43:32;;;;;;;15.77;11.23;;;;;;;11.60;81.27;99215.75;5050766;28;20043;-73
2023/10/01 06:45:59;;;;;;;17.85;12.10;;;;;;;11.66;81.37;99204.09;5048621;28;20504;-73
2023/10/01 06:48:27;;;;;;;19.13;13.23;;;;;;;11.81;81.53;99218.03;5046708;28;20029;-72
2023/10/01 06:50:53;;;;;;;15.88;12.35;;;;;;;11.83;81.79;99202.44;5052563;28;20082;-72
2023/10/01 06:53:19;;;;;;;18.60;12.88;;;;;;;12.00;81.48;99211.53;5020283;28;20086;-73
2023/10/01 06:55:47;;;;;;;18.98;14.35;;;;;;;12.01;81.81;99213.19;5071107;28;20028;-73
2023/10/01 06:58:13;;;;;;;21.67;14.70;;;;;;;12.07;81.66;99206.88;5071486;28;20032;-72
2023/10/01 07:00:41;;;;;;;18.80;14.65;;;;;;;12.18;81.98;99216.09;5053769;28;20074;-73
2023/10/01 07:03:21;;;;;;;21.20;15.75;;;;;;;12.22;82.01;99218.09;5037609;28;20462;-72
2023/10/01 07:05:51;;;;;;;27.42;18.02;;;;;;;12.22;82.48;99220.81;5051802;28;20037;-73
2023/10/01 07:08:18;;;;;;;23.35;17.52;;;;;;;12.27;83.08;99212.84;5049060;28;20064;-73
2023/10/01 07:10:46;;;;;;;23.92;17.00;;;;;;;12.32;82.82;99214.84;5033796;28;20029;-73
2023/10/01 07:13:15;;;;;;;21.38;16.55;;;;;;;12.37;83.05;99214.94;5054337;28;20032;-73
2023/10/01 07:15:43;;;;;;;21.88;16.98;;;;;;;12.42;83.70;99215.91;5053759;28;20516;-73
2023/10/01 07:18:15;;;;;;;23.33;17.23;;;;;;;12.51;83.20;99202.09;5037365;28;20043;-74
2023/10/01 07:20:44;;;;;;;22.80;16.40;;;;;;;12.49;83.56;99195.03;5050244;28;20155;-72
2023/10/01 07:23:11;;;;;;;22.55;17.10;;;;;;;12.67;83.36;99206.81;5034513;28;20074;-73
2023/10/01 07:25:43;;;;;;;25.92;17.58;;;;;;;12.75;83.71;99209.16;5036366;28;20128;-72
2023/10/01 07:28:12;;;;;;;21.77;16.85;;;;;;;12.72;83.71;99182.63;5016817;28;20111;-73
2023/10/01 07:30:46;;;;;;;24.48;17.13;;;;;;;12.87;83.31;99193.78;5025419;28;20103;-73
2023/10/01 07:33:17;;;;;;;21.13;15.35;;;;;;;13.04;82.86;99213.66;5049520;28;20135;-73
2023/10/01 07:35:44;;;;;;;21.58;16.30;;;;;;;13.03;83.27;99195.78;5045389;28;20033;-73
2023/10/01 07:38:11;;;;;;;24.23;16.55;;;;;;;13.25;83.68;99210.38;5031324;28;20021;-70
2023/10/01 07:43:39;;;;;;;22.98;16.60;;;;;;;13.40;83.22;99202.59;4987592;28;20042;-75
2023/10/01 07:46:07;;;;;;;21.58;15.88;;;;;;;13.54;83.17;99209.38;5037689;28;20121;-73
2023/10/01 07:48:33;;;;;;;20.67;16.08;;;;;;;13.70;82.92;99213.22;5062982;28;20037;-73
2023/10/01 07:51:02;;;;;;;21.65;15.27;;;;;;;13.88;82.31;99220.38;5030095;28;20044;-73
2023/10/01 07:53:32;;;;;;;20.08;15.68;;;;;;;13.92;82.21;99226.94;5053490;28;20047;-74
2023/10/01 07:56:15;;;;;;;18.85;14.15;;;;;;;13.91;81.78;99203.66;5053424;28;20078;-73
2023/10/01 07:58:47;;;;;;;20.48;15.45;;;;;;;14.16;82.00;99225.81;5064557;28;20045;-73
2023/10/01 08:03:59;;;;;;;19.30;14.85;;;;;;;14.31;82.02;99236.94;5069419;28;20120;-73
2023/10/01 08:06:30;;;;;;;19.38;13.35;;;;;;;14.39;81.67;99228.44;5052197;28;20136;-74
2023/10/01 08:08:57;;;;;;;18.77;13.80;;;;;;;14.39;81.99;99204.03;5049768;28;20499;-74
2023/10/01 08:14:08;;;;;;;16.63;13.38;;;;;;;14.67;81.27;99220.25;5070917;28;20047;-74
2023/10/01 08:16:47;;;;;;;20.10;13.35;;;;;;;14.72;81.32;99217.63;5052211;28;20032;-74
2023/10/01 08:19:15;;;;;;;17.17;12.65;;;;;;;14.70;80.96;99203.50;5038166;28;20041;-74
2023/10/01 08:21:48;;;;;;;19.23;12.43;;;;;;;14.90;80.89;99220.09;5049632;28;20485;-73
2023/10/01 08:24:18;;;;;;;18.60;13.32;;;;;;;14.87;80.33;99215.16;5063531;28;20043;-74
2023/10/01 08:27:04;;;;;;;16.33;12.05;;;;;;;15.05;80.38;99217.59;5049202;28;20053;-74
2023/10/01 08:29:59;;;;;;;16.02;11.98;;;;;;;15.10;80.01;99231.25;5051111;28;20100;-74
2023/10/01 08:32:22;;;;;;;18.65;12.30;;;;;;;15.12;79.95;99217.47;5056253;28;20415;-74
2023/10/01 08:35:06;;;;;;;18.25;12.05;;;;;;;15.32;79.55;99227.78;5049504;28;20036;-74
2023/10/01 08:37:31;;;;;;;17.50;12.43;;;;;;;15.35;79.16;99216.44;5050244;28;20041;-74
2023/10/01 08:40:00;;;;;;;19.23;12.18;;;;;;;15.47;78.57;99214.47;5054410;28;20021;-74
2023/10/01 08:42:28;;;;;;;17.15;11.35;;;;;;;15.48;78.33;99206.06;5074312;28;20399;-74
2023/10/01 08:45:05;;;;;;;17.17;11.25;;;;;;;15.65;78.39;99216.88;5040157;28;20024;-74
2023/10/01 08:47:32;;;;;;;17.50;11.40;;;;;;;15.63;78.01;99213.59;5052701;28;20416;-74
2023/10/01 08:52:52;;;;;;;17.38;11.73;;;;;;;15.92;76.89;99216.94;5040436;28;20139;-73
2023/10/01 08:58:25;;;;;;;16.02;10.65;;;;;;;16.12;76.20;99209.84;5057954;28;20039;-74
2023/10/01 09:01:13;;;;;;;14.93;10.75;;;;;;;16.10;75.84;99203.84;5052825;28;20040;-74
2023/10/01 09:03:39;;;;;;;16.40;10.63;;;;;;;16.25;75.10;99214.03;5070975;28;20047;-74
2023/10/01 09:06:24;;;;;;;17.70;10.05;;;;;;;16.31;74.31;99221.97;5035603;28;20079;-73
2023/10/01 09:08:59;;;;;;;17.05;10.15;;;;;;;16.47;74.02;99225.69;5058062;28;20397;-74
2023/10/01 09:11:49;;;;;;;17.10;10.02;;;;;;;16.56;73.22;99229.63;5053386;28;20485;-74
2023/10/01 09:14:17;;;;;;;13.38;9.30;;;;;;;16.59;73.00;99212.78;5073894;28;20036;-74
2023/10/01 09:16:44;;;;;;;13.80;9.00;;;;;;;16.67;72.95;99214.19;5038850;28;20035;-74
2023/10/01 09:21:55;;;;;;;13.88;8.55;;;;;;;16.62;72.16;99178.81;5060527;28;20099;-74
2023/10/01 09:24:42;;;;;;;13.07;8.48;;;;;;;16.81;71.67;99182.75;5039007;28;20024;-74
2023/10/01 09:27:19;;;;;;;16.80;7.90;;;;;;;17.02;71.35;99200.88;5052209;28;20036;-74
2023/10/01 09:29:48;;;;;;;11.85;8.23;;;;;;;17.06;70.85;99191.13;5039767;28;20025;-74
2023/10/01 09:32:13;;;;;;;13.15;7.60;;;;;;;17.22;69.55;99206.47;5072205;28;20373;-73
2023/10/01 09:34:46;;;;;;;11.15;7.68;;;;;;;17.28;69.05;99198.06;5055463;28;20044;-74
2023/10/01 09:37:18;;;;;;;11.90;7.75;;;;;;;17.38;69.26;99194.59;5039319;28;20040;-74
2023/10/01 09:39:43;;;;;;;12.85;7.55;;;;;;;17.51;68.77;99198.72;5073140;28;20044;-74
2023/10/01 09:42:25;;;;;;;12.02;7.50;;;;;;;17.66;68.48;99210.56;5073231;28;20396;-75
2023/10/01 09:44:53;;;;;;;13.63;7.45;;;;;;;17.72;68.04;99209.50;5062140;28;20560;-74
2023/10/01 09:47:24;;;;;;;13.38;7.90;;;;;;;17.79;67.35;99218.25;5053954;28;20017;-74
2023/10/01 09:49:51;;;;;;;12.00;7.45;;;;;;;17.84;67.05;99199.22;5055320;28;20083;-74
2023/10/01 09:52:27;;;;;;;13.45;7.07;;;;;;;17.94;66.76;99203.88;5055284;28;20578;-75
2023/10/01 09:55:06;;;;;;;14.35;7.45;;;;;;;18.04;65.49;99214.00;5055020;28;20445;-74
2023/10/01 09:57:37;;;;;;;13.38;7.32;;;;;;;17.95;65.92;99189.97;5054681;28;20111;-73
2023/10/01 10:00:17;;;;;;;11.57;7.55;;;;;;;18.12;65.92;99197.94;5051684;28;20132;-74
2023/10/01 10:02:51;;;;;;;11.48;7.30;;;;;;;18.32;64.88;99194.44;5045340;28;20041;-74
2023/10/01 10:05:28;;;;;;;15.48;8.25;;;;;;;18.41;64.53;99204.53;5038631;28;20506;-74
2023/10/01 10:07:55;;;;;;;13.48;7.25;;;;;;;18.46;63.97;99201.03;5058599;28;20033;-74
2023/10/01 10:10:26;;;;;;;11.20;7.10;;;;;;;18.52;63.18;99203.50;5075533;28;20033;-73
2023/10/01 10:12:56;;;;;;;13.95;7.57;;;;;;;18.40;61.96;99180.25;5055820;28;20546;-73
2023/10/01 10:15:56;;;;;;;14.10;7.32;;;;;;;18.58;62.28;99207.88;5034016;28;20040;-74
2023/10/01 10:18:23;;;;;;;11.23;7.25;;;;;;;18.65;62.57;99199.41;5037854;28;20040;-74
2023/10/01 10:20:58;;;;;;;14.25;7.25;;;;;;;18.82;62.84;99199.97;5072279;28;20026;-74
2023/10/01 10:23:29;;;;;;;13.20;7.22;;;;;;;18.91;62.92;99201.06;5051292;28;20079;-74
2023/10/01 10:26:13;;;;;;;12.98;6.93;;;;;;;18.90;60.94;99191.25;5069109;28;20059;-73
2023/10/01 10:28:54;;;;;;;13.68;7.18;;;;;;;18.98;60.95;99193.41;5034600;28;20489;-73
2023/10/01 10:31:30;;;;;;;12.55;6.70;;;;;;;19.08;61.32;99198.88;5048813;28;20129;-75
2023/10/01 10:34:21;;;;;;;12.68;6.85;;;;;;;19.04;60.81;99186.81;5063515;28;20047;-74
2023/10/01 10:36:51;;;;;;;13.18;7.07;;;;;;;19.23;60.32;99185.16;5060956;28;20143;-74
2023/10/01 10:39:44;;;;;;;12.70;7.25;;;;;;;19.26;60.65;99192.00;5054441;28;20037;-73
2023/10/01 10:42:28;;;;;;;10.35;6.82;;;;;;;19.26;60.67;99165.50;5072078;28;20044;-74
2023/10/01 10:45:20;;;;;;;12.55;7.05;;;;;;;19.45;60.87;99178.59;5050881;28;20047;-74
2023/10/01 10:48:04;;;;;;;13.57;7.72;;;;;;;19.47;59.98;99168.19;5053854;28;20079;-74
2023/10/01 10:50:49;;;;;;;11.55;7.60;;;;;;;19.53;59.89;99175.31;5037299;28;20553;-74
2023/10/01 10:53:29;;;;;;;12.05;7.25;;;;;;;19.41;59.79;99166.59;5053969;28;20041;-74
2023/10/01 10:56:13;;;;;;;12.02;7.00;;;;;;;19.54;59.80;99183.22;5058606;28;20028;-74
2023/10/01 10:58:49;;;;;;;13.60;7.45;;;;;;;19.62;60.07;99188.13;5054127;28;20123;-73
2023/10/01 11:01:21;;;;;;;15.88;7.90;;;;;;;19.68;59.73;99183.44;5071717;28;20032;-73
2023/10/01 11:03:59;;;;;;;11.48;7.32;;;;;;;19.82;59.69;99184.47;5053341;28;20067;-74
2023/10/01 11:06:42;;;;;;;12.57;7.82;;;;;;;19.79;59.34;99171.38;5050163;28;20048;-74
2023/10/01 11:09:25;;;;;;;12.30;7.38;;;;;;;19.93;59.57;99169.63;5027266;28;20056;-74
2023/10/01 11:12:19;;;;;;;13.20;7.50;;;;;;;19.93;58.51;99177.84;5050285;28;20033;-74
2023/10/01 11:14:53;;;;;;;15.13;7.60;;;;;;;20.00;58.57;99159.22;5064378;28;20048;-73
2023/10/01 11:17:22;;;;;;;14.15;7.85;;;;;;;19.98;58.41;99139.53;5036587;28;20036;-73
2023/10/01 11:19:47;;;;;;;12.88;7.40;;;;;;;20.19;57.88;99165.69;5071324;28;20593;-73
2023/10/01 11:22:13;;;;;;;13.00;7.43;;;;;;;20.22;58.38;99169.78;5050317;28;20036;-73
2023/10/01 11:24:40;;;;;;;13.00;7.38;;;;;;;20.28;58.18;99157.75;5064439;28;20311;-74
2023/10/01 11:30:13;;;;;;;12.35;7.50;;;;;;;20.38;57.25;99136.56;5050290;28;20441;-74
2023/10/01 11:35:33;;;;;;;12.98;7.07;;;;;;;20.65;56.46;99130.63;5055629;28;20127;-74
2023/10/01 11:38:22;;;;;;;11.48;6.15;;;;;;;20.84;55.31;99149.91;5071237;28;20039;-73
2023/10/01 11:41:06;;;;;;;13.80;6.80;;;;;;;20.93;54.00;99148.19;5052311;28;20040;-70
2023/10/01 11:44:00;;;;;;;10.88;5.97;;;;;;;21.89;52.07;99146.00;5053387;28;20045;-71
2023/10/01 11:46:32;;;;;;;13.50;7.30;;;;;;;23.99;47.19;99136.31;5058856;28;20028;-75
2023/10/01 11:49:07;;;;;;;13.73;6.90;;;;;;;25.84;44.29;99135.44;5052139;28;20029;-74
2023/10/01 11:51:45;;;;;;;10.75;6.15;;;;;;;26.97;42.19;99135.19;5033817;28;20114;-74
2023/10/01 11:54:17;;;;;;;10.00;6.50;;;;;;;28.31;39.51;99126.88;5069504;28;20115;-74
2023/10/01 11:56:44;;;;;;;9.57;6.30;;;;;;;29.03;37.51;99128.38;5047786;28;20069;-74
2023/10/01 11:59:17;;;;;;;9.73;5.75;;;;;;;29.35;36.54;99113.66;5035290;28;20067;-74
2023/10/01 12:01:49;;;;;;;9.65;5.55;;;;;;;29.62;35.69;99121.31;5050430;28;20091;-76
2023/10/01 12:04:48;;;;;;;10.07;5.93;;;;;;;30.24;33.57;99117.31;5032326;28;20043;-76
2023/10/01 12:07:18;;;;;;;9.73;6.68;;;;;;;30.51;33.87;99099.88;5056939;28;20045;-75
2023/10/01 12:09:49;;;;;;;10.98;6.28;;;;;;;31.18;32.92;99113.69;5049971;28;20083;-76
2023/10/01 12:12:20;;;;;;;10.15;6.25;;;;;;;32.05;32.90;99099.56;5049868;28;20152;-75
2023/10/01 12:14:53;;;;;;;10.57;6.00;;;;;;;32.76;31.48;99101.91;5017057;28;20576;-75
2023/10/01 12:17:23;;;;;;;8.88;6.20;;;;;;;33.47;29.93;99090.06;5058007;28;20044;-75
2023/10/01 12:19:59;;;;;;;10.77;6.10;;;;;;;33.76;28.81;99094.16;5074682;28;20047;-75
2023/10/01 12:22:27;;;;;;;10.85;6.53;;;;;;;33.34;29.58;99091.44;5057041;28;20040;-73
2023/10/01 12:24:57;;;;;;;11.15;5.97;;;;;;;33.70;29.64;99096.44;5074871;28;20024;-73
2023/10/01 12:27:42;;;;;;;10.50;6.38;;;;;;;33.40;29.78;99098.31;5057162;28;20036;-72
2023/10/01 12:30:27;;;;;;;;;;;;;;;32.98;30.58;99083.59;5042429;28;20064;-73